sensor_id;sensor_type;location;lat;lon;timestamp;P1;durP1;ratioP1;P2;durP2;ratioP2
52838;SDS011;39219;53.678;9.856;2023-04-08T00:02:11;22.58;;;10.07;;
52838;SDS011;39219;53.678;9.856;2023-04-08T00:04:37;25.17;;;10.30;;
52838;SDS011;39219;53.678;9.856;2023-04-08T00:07:03;22.60;;;10.15;;
52838;SDS011;39219;53.678;9.856;2023-04-08T00:09:30;24.48;;;9.63;;
52838;SDS011;39219;53.678;9.856;2023-04-08T00:11:56;21.95;;;10.18;;
52838;SDS011;39219;53.678;9.856;2023-04-08T00:14:24;21.65;;;9.73;;
52838;SDS011;39219;53.678;9.856;2023-04-08T00:16:50;18.25;;;9.52;;
52838;SDS011;39219;53.678;9.856;2023-04-08T00:19:16;20.70;;;9.40;;
52838;SDS011;39219;53.678;9.856;2023-04-08T00:21:42;19.33;;;9.13;;
52838;SDS011;39219;53.678;9.856;2023-04-08T00:24:09;19.60;;;9.50;;
52838;SDS011;39219;53.678;9.856;2023-04-08T00:26:35;20.17;;;9.35;;
52838;SDS011;39219;53.678;9.856;2023-04-08T00:29:02;20.85;;;9.93;;
52838;SDS011;39219;53.678;9.856;2023-04-08T00:31:29;19.23;;;8.93;;
52838;SDS011;39219;53.678;9.856;2023-04-08T00:33:56;20.05;;;9.38;;
52838;SDS011;39219;53.678;9.856;2023-04-08T00:36:22;19.98;;;9.90;;
52838;SDS011;39219;53.678;9.856;2023-04-08T00:38:49;21.67;;;9.80;;
52838;SDS011;39219;53.678;9.856;2023-04-08T00:41:15;24.70;;;9.40;;
52838;SDS011;39219;53.678;9.856;2023-04-08T00:43:41;22.40;;;9.77;;
52838;SDS011;39219;53.678;9.856;2023-04-08T00:46:07;19.15;;;9.27;;
52838;SDS011;39219;53.678;9.856;2023-04-08T00:48:36;20.23;;;9.43;;
52838;SDS011;39219;53.678;9.856;2023-04-08T00:51:02;21.25;;;10.07;;
52838;SDS011;39219;53.678;9.856;2023-04-08T00:53:29;20.80;;;10.07;;
52838;SDS011;39219;53.678;9.856;2023-04-08T00:55:55;19.98;;;9.65;;
52838;SDS011;39219;53.678;9.856;2023-04-08T00:58:22;20.88;;;10.35;;
52838;SDS011;39219;53.678;9.856;2023-04-08T01:00:49;23.33;;;10.30;;
52838;SDS011;39219;53.678;9.856;2023-04-08T01:03:24;23.50;;;10.85;;
52838;SDS011;39219;53.678;9.856;2023-04-08T01:05:54;26.05;;;10.70;;
52838;SDS011;39219;53.678;9.856;2023-04-08T01:08:21;23.00;;;10.27;;
52838;SDS011;39219;53.678;9.856;2023-04-08T01:10:50;22.65;;;10.70;;
52838;SDS011;39219;53.678;9.856;2023-04-08T01:13:16;23.05;;;10.32;;
52838;SDS011;39219;53.678;9.856;2023-04-08T01:15:43;25.08;;;10.40;;
52838;SDS011;39219;53.678;9.856;2023-04-08T01:18:10;25.10;;;10.82;;
52838;SDS011;39219;53.678;9.856;2023-04-08T01:20:37;25.90;;;11.23;;
52838;SDS011;39219;53.678;9.856;2023-04-08T01:23:08;22.90;;;10.43;;
52838;SDS011;39219;53.678;9.856;2023-04-08T01:25:35;25.60;;;10.90;;
52838;SDS011;39219;53.678;9.856;2023-04-08T01:28:04;25.77;;;11.07;;
52838;SDS011;39219;53.678;9.856;2023-04-08T01:30:30;22.45;;;11.02;;
52838;SDS011;39219;53.678;9.856;2023-04-08T01:32:57;23.17;;;11.50;;
52838;SDS011;39219;53.678;9.856;2023-04-08T01:35:24;29.35;;;12.10;;
52838;SDS011;39219;53.678;9.856;2023-04-08T01:37:51;28.80;;;11.85;;
52838;SDS011;39219;53.678;9.856;2023-04-08T01:40:18;24.08;;;11.52;;
52838;SDS011;39219;53.678;9.856;2023-04-08T01:42:45;25.30;;;11.70;;
52838;SDS011;39219;53.678;9.856;2023-04-08T01:45:13;28.13;;;13.10;;
52838;SDS011;39219;53.678;9.856;2023-04-08T01:47:40;25.80;;;12.35;;
52838;SDS011;39219;53.678;9.856;2023-04-08T01:50:07;31.50;;;12.80;;
52838;SDS011;39219;53.678;9.856;2023-04-08T01:52:34;27.45;;;12.50;;
52838;SDS011;39219;53.678;9.856;2023-04-08T01:55:03;27.45;;;12.75;;
52838;SDS011;39219;53.678;9.856;2023-04-08T01:57:30;27.45;;;12.25;;
52838;SDS011;39219;53.678;9.856;2023-04-08T01:59:58;27.35;;;13.18;;
52838;SDS011;39219;53.678;9.856;2023-04-08T02:02:27;27.45;;;13.15;;
52838;SDS011;39219;53.678;9.856;2023-04-08T02:04:54;27.50;;;13.55;;
52838;SDS011;39219;53.678;9.856;2023-04-08T02:07:20;26.30;;;11.98;;
52838;SDS011;39219;53.678;9.856;2023-04-08T02:09:46;28.88;;;12.85;;
52838;SDS011;39219;53.678;9.856;2023-04-08T02:12:12;29.38;;;12.88;;
52838;SDS011;39219;53.678;9.856;2023-04-08T02:14:39;27.17;;;12.93;;
52838;SDS011;39219;53.678;9.856;2023-04-08T02:17:07;26.50;;;12.63;;
52838;SDS011;39219;53.678;9.856;2023-04-08T02:19:38;25.77;;;12.52;;
52838;SDS011;39219;53.678;9.856;2023-04-08T02:22:09;25.88;;;12.25;;
52838;SDS011;39219;53.678;9.856;2023-04-08T02:24:36;24.77;;;11.88;;
52838;SDS011;39219;53.678;9.856;2023-04-08T02:27:03;24.35;;;11.40;;
52838;SDS011;39219;53.678;9.856;2023-04-08T02:29:30;20.35;;;11.13;;
52838;SDS011;39219;53.678;9.856;2023-04-08T02:31:57;23.95;;;10.65;;
52838;SDS011;39219;53.678;9.856;2023-04-08T02:34:23;22.80;;;10.77;;
52838;SDS011;39219;53.678;9.856;2023-04-08T02:36:51;23.35;;;10.50;;
52838;SDS011;39219;53.678;9.856;2023-04-08T02:39:18;23.30;;;11.30;;
52838;SDS011;39219;53.678;9.856;2023-04-08T02:41:44;23.85;;;11.02;;
52838;SDS011;39219;53.678;9.856;2023-04-08T02:44:10;28.15;;;12.85;;
52838;SDS011;39219;53.678;9.856;2023-04-08T02:46:37;25.77;;;12.00;;
52838;SDS011;39219;53.678;9.856;2023-04-08T02:49:03;24.92;;;12.25;;
52838;SDS011;39219;53.678;9.856;2023-04-08T02:51:29;22.38;;;10.80;;
52838;SDS011;39219;53.678;9.856;2023-04-08T02:53:57;24.17;;;11.40;;
52838;SDS011;39219;53.678;9.856;2023-04-08T02:56:23;23.15;;;11.63;;
52838;SDS011;39219;53.678;9.856;2023-04-08T02:58:50;23.60;;;11.90;;
52838;SDS011;39219;53.678;9.856;2023-04-08T03:01:16;26.48;;;11.88;;
52838;SDS011;39219;53.678;9.856;2023-04-08T03:03:42;25.75;;;11.90;;
52838;SDS011;39219;53.678;9.856;2023-04-08T03:06:08;26.98;;;11.82;;
52838;SDS011;39219;53.678;9.856;2023-04-08T03:08:35;27.40;;;12.52;;
52838;SDS011;39219;53.678;9.856;2023-04-08T03:11:03;26.13;;;12.02;;
52838;SDS011;39219;53.678;9.856;2023-04-08T03:13:29;24.20;;;11.45;;
52838;SDS011;39219;53.678;9.856;2023-04-08T03:15:55;25.10;;;11.98;;
52838;SDS011;39219;53.678;9.856;2023-04-08T03:18:22;26.13;;;12.70;;
52838;SDS011;39219;53.678;9.856;2023-04-08T03:20:48;24.70;;;12.13;;
52838;SDS011;39219;53.678;9.856;2023-04-08T03:23:14;25.83;;;12.10;;
52838;SDS011;39219;53.678;9.856;2023-04-08T03:25:41;25.42;;;12.38;;
52838;SDS011;39219;53.678;9.856;2023-04-08T03:28:08;22.65;;;11.43;;
52838;SDS011;39219;53.678;9.856;2023-04-08T03:30:35;25.38;;;11.80;;
52838;SDS011;39219;53.678;9.856;2023-04-08T03:33:01;25.05;;;12.18;;
52838;SDS011;39219;53.678;9.856;2023-04-08T03:35:29;30.20;;;13.50;;
52838;SDS011;39219;53.678;9.856;2023-04-08T03:37:56;32.15;;;14.05;;
52838;SDS011;39219;53.678;9.856;2023-04-08T03:40:23;27.40;;;13.30;;
52838;SDS011;39219;53.678;9.856;2023-04-08T03:42:49;27.92;;;13.23;;
52838;SDS011;39219;53.678;9.856;2023-04-08T03:45:17;27.95;;;13.18;;
52838;SDS011;39219;53.678;9.856;2023-04-08T03:47:43;27.98;;;13.73;;
52838;SDS011;39219;53.678;9.856;2023-04-08T03:50:10;28.08;;;13.60;;
52838;SDS011;39219;53.678;9.856;2023-04-08T03:52:36;30.65;;;14.15;;
52838;SDS011;39219;53.678;9.856;2023-04-08T03:55:02;30.42;;;14.23;;
52838;SDS011;39219;53.678;9.856;2023-04-08T03:57:29;30.60;;;13.90;;
52838;SDS011;39219;53.678;9.856;2023-04-08T03:59:55;30.75;;;14.32;;
52838;SDS011;39219;53.678;9.856;2023-04-08T04:02:23;31.90;;;14.70;;
52838;SDS011;39219;53.678;9.856;2023-04-08T04:04:49;34.17;;;15.10;;
52838;SDS011;39219;53.678;9.856;2023-04-08T04:07:16;36.53;;;15.63;;
52838;SDS011;39219;53.678;9.856;2023-04-08T04:09:42;34.83;;;15.35;;
52838;SDS011;39219;53.678;9.856;2023-04-08T04:12:08;35.28;;;15.60;;
52838;SDS011;39219;53.678;9.856;2023-04-08T04:14:34;33.17;;;14.73;;
52838;SDS011;39219;53.678;9.856;2023-04-08T04:17:01;33.78;;;15.60;;
52838;SDS011;39219;53.678;9.856;2023-04-08T04:19:30;36.45;;;15.05;;
52838;SDS011;39219;53.678;9.856;2023-04-08T04:21:56;30.08;;;14.38;;
52838;SDS011;39219;53.678;9.856;2023-04-08T04:24:22;36.05;;;15.60;;
52838;SDS011;39219;53.678;9.856;2023-04-08T04:26:48;35.20;;;15.32;;
52838;SDS011;39219;53.678;9.856;2023-04-08T04:29:15;32.45;;;15.32;;
52838;SDS011;39219;53.678;9.856;2023-04-08T04:31:41;36.55;;;16.90;;
52838;SDS011;39219;53.678;9.856;2023-04-08T04:34:07;33.67;;;15.10;;
52838;SDS011;39219;53.678;9.856;2023-04-08T04:36:35;32.60;;;14.52;;
52838;SDS011;39219;53.678;9.856;2023-04-08T04:39:01;33.08;;;14.68;;
52838;SDS011;39219;53.678;9.856;2023-04-08T04:41:27;33.30;;;15.50;;
52838;SDS011;39219;53.678;9.856;2023-04-08T04:43:54;35.15;;;15.02;;
52838;SDS011;39219;53.678;9.856;2023-04-08T04:46:20;40.38;;;16.20;;
52838;SDS011;39219;53.678;9.856;2023-04-08T04:48:46;35.47;;;15.65;;
52838;SDS011;39219;53.678;9.856;2023-04-08T04:51:13;35.63;;;15.82;;
52838;SDS011;39219;53.678;9.856;2023-04-08T04:53:40;38.55;;;15.98;;
52838;SDS011;39219;53.678;9.856;2023-04-08T04:56:07;36.38;;;15.35;;
52838;SDS011;39219;53.678;9.856;2023-04-08T04:58:33;39.42;;;17.05;;
52838;SDS011;39219;53.678;9.856;2023-04-08T05:00:59;42.65;;;16.05;;
52838;SDS011;39219;53.678;9.856;2023-04-08T05:03:25;43.67;;;17.38;;
52838;SDS011;39219;53.678;9.856;2023-04-08T05:05:52;40.75;;;16.27;;
52838;SDS011;39219;53.678;9.856;2023-04-08T05:08:18;45.20;;;18.67;;
52838;SDS011;39219;53.678;9.856;2023-04-08T05:10:46;50.67;;;18.58;;
52838;SDS011;39219;53.678;9.856;2023-04-08T05:13:14;49.33;;;19.08;;
52838;SDS011;39219;53.678;9.856;2023-04-08T05:15:40;45.25;;;17.58;;
52838;SDS011;39219;53.678;9.856;2023-04-08T05:18:06;50.03;;;18.63;;
52838;SDS011;39219;53.678;9.856;2023-04-08T05:20:33;43.88;;;17.42;;
52838;SDS011;39219;53.678;9.856;2023-04-08T05:22:59;48.58;;;18.98;;
52838;SDS011;39219;53.678;9.856;2023-04-08T05:25:25;49.22;;;17.90;;
52838;SDS011;39219;53.678;9.856;2023-04-08T05:27:53;49.15;;;17.60;;
52838;SDS011;39219;53.678;9.856;2023-04-08T05:30:20;52.78;;;18.75;;
52838;SDS011;39219;53.678;9.856;2023-04-08T05:32:46;49.03;;;17.88;;
52838;SDS011;39219;53.678;9.856;2023-04-08T05:35:12;54.72;;;19.10;;
52838;SDS011;39219;53.678;9.856;2023-04-08T05:37:39;50.50;;;18.35;;
52838;SDS011;39219;53.678;9.856;2023-04-08T05:40:05;46.45;;;18.30;;
52838;SDS011;39219;53.678;9.856;2023-04-08T05:42:32;45.85;;;17.90;;
52838;SDS011;39219;53.678;9.856;2023-04-08T05:44:59;40.20;;;16.77;;
52838;SDS011;39219;53.678;9.856;2023-04-08T05:47:26;42.35;;;17.02;;
52838;SDS011;39219;53.678;9.856;2023-04-08T05:49:52;46.42;;;17.88;;
52838;SDS011;39219;53.678;9.856;2023-04-08T05:52:18;40.95;;;17.05;;
52838;SDS011;39219;53.678;9.856;2023-04-08T05:54:45;47.67;;;17.42;;
52838;SDS011;39219;53.678;9.856;2023-04-08T05:57:11;43.40;;;17.45;;
52838;SDS011;39219;53.678;9.856;2023-04-08T05:59:37;50.25;;;18.48;;
52838;SDS011;39219;53.678;9.856;2023-04-08T06:02:05;46.15;;;17.50;;
52838;SDS011;39219;53.678;9.856;2023-04-08T06:04:32;49.13;;;18.20;;
52838;SDS011;39219;53.678;9.856;2023-04-08T06:06:58;44.20;;;17.50;;
52838;SDS011;39219;53.678;9.856;2023-04-08T06:09:27;43.22;;;15.38;;
52838;SDS011;39219;53.678;9.856;2023-04-08T06:11:53;38.42;;;15.18;;
52838;SDS011;39219;53.678;9.856;2023-04-08T06:14:20;34.78;;;14.30;;
52838;SDS011;39219;53.678;9.856;2023-04-08T06:16:47;37.58;;;15.25;;
52838;SDS011;39219;53.678;9.856;2023-04-08T06:19:14;35.83;;;14.50;;
52838;SDS011;39219;53.678;9.856;2023-04-08T06:21:41;40.65;;;15.63;;
52838;SDS011;39219;53.678;9.856;2023-04-08T06:24:07;44.92;;;15.25;;
52838;SDS011;39219;53.678;9.856;2023-04-08T06:26:33;40.03;;;15.85;;
52838;SDS011;39219;53.678;9.856;2023-04-08T06:28:59;35.03;;;15.02;;
52838;SDS011;39219;53.678;9.856;2023-04-08T06:31:27;39.45;;;15.15;;
52838;SDS011;39219;53.678;9.856;2023-04-08T06:33:53;45.00;;;16.45;;
52838;SDS011;39219;53.678;9.856;2023-04-08T06:36:21;37.33;;;15.75;;
52838;SDS011;39219;53.678;9.856;2023-04-08T06:38:47;43.00;;;15.70;;
52838;SDS011;39219;53.678;9.856;2023-04-08T06:41:13;45.72;;;18.65;;
52838;SDS011;39219;53.678;9.856;2023-04-08T06:43:40;48.15;;;18.27;;
52838;SDS011;39219;53.678;9.856;2023-04-08T06:46:06;43.90;;;17.90;;
52838;SDS011;39219;53.678;9.856;2023-04-08T06:48:32;44.97;;;18.98;;
52838;SDS011;39219;53.678;9.856;2023-04-08T06:50:59;42.50;;;17.33;;
52838;SDS011;39219;53.678;9.856;2023-04-08T06:53:27;42.65;;;17.40;;
52838;SDS011;39219;53.678;9.856;2023-04-08T06:55:55;39.05;;;16.45;;
52838;SDS011;39219;53.678;9.856;2023-04-08T06:58:21;39.40;;;16.73;;
52838;SDS011;39219;53.678;9.856;2023-04-08T07:00:47;42.22;;;16.73;;
52838;SDS011;39219;53.678;9.856;2023-04-08T07:03:14;42.83;;;16.27;;
52838;SDS011;39219;53.678;9.856;2023-04-08T07:05:40;36.17;;;15.40;;
52838;SDS011;39219;53.678;9.856;2023-04-08T07:08:07;37.75;;;15.00;;
52838;SDS011;39219;53.678;9.856;2023-04-08T07:10:34;37.10;;;15.70;;
52838;SDS011;39219;53.678;9.856;2023-04-08T07:13:01;37.45;;;16.10;;
52838;SDS011;39219;53.678;9.856;2023-04-08T07:15:27;35.95;;;14.85;;
52838;SDS011;39219;53.678;9.856;2023-04-08T07:17:53;36.53;;;14.57;;
52838;SDS011;39219;53.678;9.856;2023-04-08T07:20:21;35.60;;;13.57;;
52838;SDS011;39219;53.678;9.856;2023-04-08T07:22:47;31.90;;;13.68;;
52838;SDS011;39219;53.678;9.856;2023-04-08T07:25:14;33.05;;;14.43;;
52838;SDS011;39219;53.678;9.856;2023-04-08T07:27:42;30.63;;;13.10;;
52838;SDS011;39219;53.678;9.856;2023-04-08T07:30:08;28.63;;;13.18;;
52838;SDS011;39219;53.678;9.856;2023-04-08T07:32:35;32.42;;;13.68;;
52838;SDS011;39219;53.678;9.856;2023-04-08T07:35:02;33.58;;;13.70;;
52838;SDS011;39219;53.678;9.856;2023-04-08T07:37:28;33.97;;;14.40;;
52838;SDS011;39219;53.678;9.856;2023-04-08T07:39:55;32.97;;;14.85;;
52838;SDS011;39219;53.678;9.856;2023-04-08T07:42:21;37.42;;;16.42;;
52838;SDS011;39219;53.678;9.856;2023-04-08T07:44:49;35.00;;;14.80;;
52838;SDS011;39219;53.678;9.856;2023-04-08T07:47:16;54.08;;;23.75;;
52838;SDS011;39219;53.678;9.856;2023-04-08T07:49:44;56.70;;;25.08;;
52838;SDS011;39219;53.678;9.856;2023-04-08T07:52:10;65.15;;;29.23;;
52838;SDS011;39219;53.678;9.856;2023-04-08T07:54:37;54.53;;;25.20;;
52838;SDS011;39219;53.678;9.856;2023-04-08T07:57:03;36.83;;;16.90;;
52838;SDS011;39219;53.678;9.856;2023-04-08T07:59:30;38.33;;;16.20;;
52838;SDS011;39219;53.678;9.856;2023-04-08T08:01:58;37.05;;;16.15;;
52838;SDS011;39219;53.678;9.856;2023-04-08T08:04:24;37.55;;;18.67;;
52838;SDS011;39219;53.678;9.856;2023-04-08T08:06:50;52.20;;;25.75;;
52838;SDS011;39219;53.678;9.856;2023-04-08T08:09:17;48.63;;;24.00;;
52838;SDS011;39219;53.678;9.856;2023-04-08T08:11:43;36.22;;;15.45;;
52838;SDS011;39219;53.678;9.856;2023-04-08T08:14:09;32.15;;;14.82;;
52838;SDS011;39219;53.678;9.856;2023-04-08T08:16:37;33.85;;;14.63;;
52838;SDS011;39219;53.678;9.856;2023-04-08T08:19:05;39.80;;;17.13;;
52838;SDS011;39219;53.678;9.856;2023-04-08T08:21:33;37.65;;;16.13;;
52838;SDS011;39219;53.678;9.856;2023-04-08T08:24:01;33.83;;;15.02;;
52838;SDS011;39219;53.678;9.856;2023-04-08T08:26:27;39.22;;;17.15;;
52838;SDS011;39219;53.678;9.856;2023-04-08T08:28:53;36.22;;;18.30;;
52838;SDS011;39219;53.678;9.856;2023-04-08T08:31:20;39.80;;;18.73;;
52838;SDS011;39219;53.678;9.856;2023-04-08T08:33:46;42.20;;;20.00;;
52838;SDS011;39219;53.678;9.856;2023-04-08T08:36:14;40.15;;;17.80;;
52838;SDS011;39219;53.678;9.856;2023-04-08T08:38:40;42.10;;;16.33;;
52838;SDS011;39219;53.678;9.856;2023-04-08T08:41:06;39.70;;;15.90;;
52838;SDS011;39219;53.678;9.856;2023-04-08T08:43:33;39.75;;;17.50;;
52838;SDS011;39219;53.678;9.856;2023-04-08T08:45:59;43.47;;;17.65;;
52838;SDS011;39219;53.678;9.856;2023-04-08T08:48:26;40.50;;;18.60;;
52838;SDS011;39219;53.678;9.856;2023-04-08T08:50:52;50.38;;;21.58;;
52838;SDS011;39219;53.678;9.856;2023-04-08T08:53:20;36.67;;;16.10;;
52838;SDS011;39219;53.678;9.856;2023-04-08T08:55:47;36.10;;;15.35;;
52838;SDS011;39219;53.678;9.856;2023-04-08T08:58:13;33.03;;;14.98;;
52838;SDS011;39219;53.678;9.856;2023-04-08T09:00:40;33.10;;;15.05;;
52838;SDS011;39219;53.678;9.856;2023-04-08T09:03:12;31.95;;;14.43;;
52838;SDS011;39219;53.678;9.856;2023-04-08T09:05:46;34.85;;;15.15;;
52838;SDS011;39219;53.678;9.856;2023-04-08T09:08:23;33.28;;;14.32;;
52838;SDS011;39219;53.678;9.856;2023-04-08T09:10:49;30.80;;;14.50;;
52838;SDS011;39219;53.678;9.856;2023-04-08T09:13:16;29.90;;;13.35;;
52838;SDS011;39219;53.678;9.856;2023-04-08T09:15:55;28.67;;;13.93;;
52838;SDS011;39219;53.678;9.856;2023-04-08T09:18:25;29.88;;;14.07;;
52838;SDS011;39219;53.678;9.856;2023-04-08T09:20:51;30.88;;;14.98;;
52838;SDS011;39219;53.678;9.856;2023-04-08T09:23:18;31.77;;;15.55;;
52838;SDS011;39219;53.678;9.856;2023-04-08T09:25:46;39.35;;;22.40;;
52838;SDS011;39219;53.678;9.856;2023-04-08T09:28:17;38.65;;;19.13;;
52838;SDS011;39219;53.678;9.856;2023-04-08T09:30:43;32.22;;;15.55;;
52838;SDS011;39219;53.678;9.856;2023-04-08T09:33:10;34.05;;;15.20;;
52838;SDS011;39219;53.678;9.856;2023-04-08T09:35:37;33.95;;;15.65;;
52838;SDS011;39219;53.678;9.856;2023-04-08T09:38:03;34.05;;;15.93;;
52838;SDS011;39219;53.678;9.856;2023-04-08T09:40:30;30.10;;;14.90;;
52838;SDS011;39219;53.678;9.856;2023-04-08T09:43:00;30.00;;;13.60;;
52838;SDS011;39219;53.678;9.856;2023-04-08T09:45:29;28.25;;;13.85;;
52838;SDS011;39219;53.678;9.856;2023-04-08T09:47:59;32.00;;;14.10;;
52838;SDS011;39219;53.678;9.856;2023-04-08T09:50:29;31.65;;;14.20;;
52838;SDS011;39219;53.678;9.856;2023-04-08T09:52:59;29.02;;;14.25;;
52838;SDS011;39219;53.678;9.856;2023-04-08T09:55:26;31.42;;;14.05;;
52838;SDS011;39219;53.678;9.856;2023-04-08T09:57:56;28.35;;;14.15;;
52838;SDS011;39219;53.678;9.856;2023-04-08T10:00:27;32.28;;;16.08;;
52838;SDS011;39219;53.678;9.856;2023-04-08T10:02:55;28.25;;;13.73;;
52838;SDS011;39219;53.678;9.856;2023-04-08T10:05:22;33.88;;;15.75;;
52838;SDS011;39219;53.678;9.856;2023-04-08T10:07:49;38.67;;;19.00;;
52838;SDS011;39219;53.678;9.856;2023-04-08T10:10:16;34.63;;;15.95;;
52838;SDS011;39219;53.678;9.856;2023-04-08T10:12:42;31.55;;;15.93;;
52838;SDS011;39219;53.678;9.856;2023-04-08T10:15:21;30.77;;;14.75;;
52838;SDS011;39219;53.678;9.856;2023-04-08T10:17:49;28.20;;;14.55;;
52838;SDS011;39219;53.678;9.856;2023-04-08T10:22:56;29.65;;;15.18;;
52838;SDS011;39219;53.678;9.856;2023-04-08T10:25:30;30.42;;;14.65;;
52838;SDS011;39219;53.678;9.856;2023-04-08T10:27:57;29.70;;;14.95;;
52838;SDS011;39219;53.678;9.856;2023-04-08T10:30:37;28.70;;;14.00;;
52838;SDS011;39219;53.678;9.856;2023-04-08T10:33:08;29.98;;;14.90;;
52838;SDS011;39219;53.678;9.856;2023-04-08T10:35:35;28.65;;;13.55;;
52838;SDS011;39219;53.678;9.856;2023-04-08T10:38:01;29.70;;;13.82;;
52838;SDS011;39219;53.678;9.856;2023-04-08T10:40:28;35.03;;;16.83;;
52838;SDS011;39219;53.678;9.856;2023-04-08T10:43:01;29.98;;;15.98;;
52838;SDS011;39219;53.678;9.856;2023-04-08T10:45:28;28.27;;;14.63;;
52838;SDS011;39219;53.678;9.856;2023-04-08T10:47:54;29.58;;;14.48;;
52838;SDS011;39219;53.678;9.856;2023-04-08T10:50:22;30.08;;;15.20;;
52838;SDS011;39219;53.678;9.856;2023-04-08T10:52:48;34.22;;;18.38;;
52838;SDS011;39219;53.678;9.856;2023-04-08T10:55:15;51.63;;;29.20;;
52838;SDS011;39219;53.678;9.856;2023-04-08T10:57:42;29.33;;;15.18;;
52838;SDS011;39219;53.678;9.856;2023-04-08T11:00:09;28.85;;;14.15;;
52838;SDS011;39219;53.678;9.856;2023-04-08T11:02:36;30.48;;;13.90;;
52838;SDS011;39219;53.678;9.856;2023-04-08T11:05:03;30.92;;;13.45;;
52838;SDS011;39219;53.678;9.856;2023-04-08T11:07:31;28.27;;;13.63;;
52838;SDS011;39219;53.678;9.856;2023-04-08T11:10:01;27.92;;;13.85;;
52838;SDS011;39219;53.678;9.856;2023-04-08T11:12:27;28.02;;;13.32;;
52838;SDS011;39219;53.678;9.856;2023-04-08T11:14:54;26.60;;;12.27;;
52838;SDS011;39219;53.678;9.856;2023-04-08T11:17:20;26.92;;;13.18;;
52838;SDS011;39219;53.678;9.856;2023-04-08T11:19:47;23.73;;;11.93;;
52838;SDS011;39219;53.678;9.856;2023-04-08T11:22:13;25.35;;;12.38;;
52838;SDS011;39219;53.678;9.856;2023-04-08T11:24:41;27.70;;;13.15;;
52838;SDS011;39219;53.678;9.856;2023-04-08T11:27:08;25.88;;;12.70;;
52838;SDS011;39219;53.678;9.856;2023-04-08T11:29:34;24.08;;;12.35;;
52838;SDS011;39219;53.678;9.856;2023-04-08T11:32:01;25.63;;;12.77;;
52838;SDS011;39219;53.678;9.856;2023-04-08T11:34:27;24.48;;;12.38;;
52838;SDS011;39219;53.678;9.856;2023-04-08T11:36:55;28.13;;;12.90;;
52838;SDS011;39219;53.678;9.856;2023-04-08T11:39:22;26.38;;;13.00;;
52838;SDS011;39219;53.678;9.856;2023-04-08T11:41:50;29.85;;;13.85;;
52838;SDS011;39219;53.678;9.856;2023-04-08T11:44:17;27.67;;;13.75;;
52838;SDS011;39219;53.678;9.856;2023-04-08T11:46:50;29.00;;;13.90;;
52838;SDS011;39219;53.678;9.856;2023-04-08T11:49:19;27.38;;;13.82;;
52838;SDS011;39219;53.678;9.856;2023-04-08T11:51:56;26.77;;;13.60;;
52838;SDS011;39219;53.678;9.856;2023-04-08T11:54:26;27.42;;;14.50;;
52838;SDS011;39219;53.678;9.856;2023-04-08T11:56:54;29.95;;;15.18;;
52838;SDS011;39219;53.678;9.856;2023-04-08T11:59:22;37.88;;;21.85;;
52838;SDS011;39219;53.678;9.856;2023-04-08T12:01:48;30.98;;;16.63;;
52838;SDS011;39219;53.678;9.856;2023-04-08T12:04:15;30.20;;;15.27;;
52838;SDS011;39219;53.678;9.856;2023-04-08T12:06:41;27.08;;;14.55;;
52838;SDS011;39219;53.678;9.856;2023-04-08T12:09:10;27.05;;;13.85;;
52838;SDS011;39219;53.678;9.856;2023-04-08T12:11:37;28.05;;;13.63;;
52838;SDS011;39219;53.678;9.856;2023-04-08T12:14:05;27.80;;;14.30;;
52838;SDS011;39219;53.678;9.856;2023-04-08T12:16:31;25.48;;;13.48;;
52838;SDS011;39219;53.678;9.856;2023-04-08T12:18:57;24.83;;;12.98;;
52838;SDS011;39219;53.678;9.856;2023-04-08T12:21:23;26.05;;;14.02;;
52838;SDS011;39219;53.678;9.856;2023-04-08T12:23:51;28.05;;;13.25;;
52838;SDS011;39219;53.678;9.856;2023-04-08T12:26:18;29.35;;;14.25;;
52838;SDS011;39219;53.678;9.856;2023-04-08T12:28:44;26.40;;;13.30;;
52838;SDS011;39219;53.678;9.856;2023-04-08T12:31:12;26.58;;;13.13;;
52838;SDS011;39219;53.678;9.856;2023-04-08T12:33:38;25.08;;;13.00;;
52838;SDS011;39219;53.678;9.856;2023-04-08T12:36:05;25.92;;;12.82;;
52838;SDS011;39219;53.678;9.856;2023-04-08T12:38:31;25.92;;;13.05;;
52838;SDS011;39219;53.678;9.856;2023-04-08T12:40:58;23.63;;;13.00;;
52838;SDS011;39219;53.678;9.856;2023-04-08T12:43:24;26.17;;;12.75;;
52838;SDS011;39219;53.678;9.856;2023-04-08T12:45:51;24.50;;;12.35;;
52838;SDS011;39219;53.678;9.856;2023-04-08T12:48:18;25.75;;;13.52;;
52838;SDS011;39219;53.678;9.856;2023-04-08T12:50:45;27.10;;;12.85;;
52838;SDS011;39219;53.678;9.856;2023-04-08T12:53:11;26.55;;;13.30;;
52838;SDS011;39219;53.678;9.856;2023-04-08T12:55:37;25.52;;;12.77;;
52838;SDS011;39219;53.678;9.856;2023-04-08T12:58:04;25.17;;;12.95;;
52838;SDS011;39219;53.678;9.856;2023-04-08T13:00:30;25.20;;;13.02;;
52838;SDS011;39219;53.678;9.856;2023-04-08T13:02:57;24.80;;;13.10;;
52838;SDS011;39219;53.678;9.856;2023-04-08T13:05:24;26.00;;;13.23;;
52838;SDS011;39219;53.678;9.856;2023-04-08T13:07:51;51.95;;;25.75;;
52838;SDS011;39219;53.678;9.856;2023-04-08T13:10:17;34.97;;;17.90;;
52838;SDS011;39219;53.678;9.856;2023-04-08T13:12:43;120.97;;;56.05;;
52838;SDS011;39219;53.678;9.856;2023-04-08T13:15:10;107.00;;;57.88;;
52838;SDS011;39219;53.678;9.856;2023-04-08T13:17:36;40.55;;;21.77;;
52838;SDS011;39219;53.678;9.856;2023-04-08T13:20:03;30.85;;;16.23;;
52838;SDS011;39219;53.678;9.856;2023-04-08T13:22:30;25.25;;;12.98;;
52838;SDS011;39219;53.678;9.856;2023-04-08T13:24:57;28.58;;;13.35;;
52838;SDS011;39219;53.678;9.856;2023-04-08T13:27:23;26.05;;;13.57;;
52838;SDS011;39219;53.678;9.856;2023-04-08T13:29:50;25.73;;;13.65;;
52838;SDS011;39219;53.678;9.856;2023-04-08T13:32:16;26.70;;;14.07;;
52838;SDS011;39219;53.678;9.856;2023-04-08T13:34:42;28.98;;;14.55;;
52838;SDS011;39219;53.678;9.856;2023-04-08T13:37:09;26.33;;;13.88;;
52838;SDS011;39219;53.678;9.856;2023-04-08T13:39:36;30.42;;;14.20;;
52838;SDS011;39219;53.678;9.856;2023-04-08T13:42:03;28.10;;;14.30;;
52838;SDS011;39219;53.678;9.856;2023-04-08T13:44:29;24.75;;;13.75;;
52838;SDS011;39219;53.678;9.856;2023-04-08T13:46:57;28.55;;;13.82;;
52838;SDS011;39219;53.678;9.856;2023-04-08T13:49:23;26.13;;;14.30;;
52838;SDS011;39219;53.678;9.856;2023-04-08T13:51:49;29.55;;;15.45;;
52838;SDS011;39219;53.678;9.856;2023-04-08T13:54:16;31.80;;;15.38;;
52838;SDS011;39219;53.678;9.856;2023-04-08T13:56:43;26.27;;;14.70;;
52838;SDS011;39219;53.678;9.856;2023-04-08T13:59:10;27.80;;;14.98;;
52838;SDS011;39219;53.678;9.856;2023-04-08T14:01:36;27.92;;;14.57;;
52838;SDS011;39219;53.678;9.856;2023-04-08T14:04:04;29.40;;;14.85;;
52838;SDS011;39219;53.678;9.856;2023-04-08T14:06:30;28.77;;;16.27;;
52838;SDS011;39219;53.678;9.856;2023-04-08T14:08:57;29.98;;;16.15;;
52838;SDS011;39219;53.678;9.856;2023-04-08T14:11:24;30.10;;;15.43;;
52838;SDS011;39219;53.678;9.856;2023-04-08T14:13:51;29.30;;;15.32;;
52838;SDS011;39219;53.678;9.856;2023-04-08T14:16:18;28.42;;;15.20;;
52838;SDS011;39219;53.678;9.856;2023-04-08T14:18:44;24.90;;;13.52;;
52838;SDS011;39219;53.678;9.856;2023-04-08T14:21:10;26.98;;;13.75;;
52838;SDS011;39219;53.678;9.856;2023-04-08T14:23:38;28.77;;;13.65;;